sensor_id;sensor_type;location;lat;lon;timestamp;P1;durP1;ratioP1;P2;durP2;ratioP2
4424;SDS011;2225;53.568;13.266;2023-04-24T00:01:07;10.33;;;6.47;;
4424;SDS011;2225;53.568;13.266;2023-04-24T00:03:35;8.83;;;6.10;;
4424;SDS011;2225;53.568;13.266;2023-04-24T00:06:02;11.53;;;5.93;;
4424;SDS011;2225;53.568;13.266;2023-04-24T00:08:29;10.90;;;6.53;;
4424;SDS011;2225;53.568;13.266;2023-04-24T00:10:56;10.47;;;6.33;;
4424;SDS011;2225;53.568;13.266;2023-04-24T00:13:23;10.03;;;6.13;;
4424;SDS011;2225;53.568;13.266;2023-04-24T00:15:50;10.90;;;6.80;;
4424;SDS011;2225;53.568;13.266;2023-04-24T00:18:17;9.97;;;6.33;;
4424;SDS011;2225;53.568;13.266;2023-04-24T00:20:44;12.60;;;6.30;;
4424;SDS011;2225;53.568;13.266;2023-04-24T00:23:11;10.03;;;6.90;;
4424;SDS011;2225;53.568;13.266;2023-04-24T00:25:38;11.73;;;6.77;;
4424;SDS011;2225;53.568;13.266;2023-04-24T00:28:05;12.17;;;6.90;;
4424;SDS011;2225;53.568;13.266;2023-04-24T00:30:32;16.33;;;7.53;;
4424;SDS011;2225;53.568;13.266;2023-04-24T00:32:59;14.87;;;7.80;;
4424;SDS011;2225;53.568;13.266;2023-04-24T00:35:26;13.33;;;7.97;;
4424;SDS011;2225;53.568;13.266;2023-04-24T00:37:53;13.83;;;7.43;;
4424;SDS011;2225;53.568;13.266;2023-04-24T00:40:20;12.37;;;7.57;;
4424;SDS011;2225;53.568;13.266;2023-04-24T00:42:47;13.27;;;7.93;;
4424;SDS011;2225;53.568;13.266;2023-04-24T00:45:15;13.10;;;7.73;;
4424;SDS011;2225;53.568;13.266;2023-04-24T00:47:42;11.40;;;7.57;;
4424;SDS011;2225;53.568;13.266;2023-04-24T00:50:09;17.23;;;8.03;;
4424;SDS011;2225;53.568;13.266;2023-04-24T00:52:39;14.30;;;8.20;;
4424;SDS011;2225;53.568;13.266;2023-04-24T00:55:07;12.60;;;8.17;;
4424;SDS011;2225;53.568;13.266;2023-04-24T00:57:34;13.40;;;8.37;;
4424;SDS011;2225;53.568;13.266;2023-04-24T01:00:02;14.77;;;9.20;;
4424;SDS011;2225;53.568;13.266;2023-04-24T01:02:31;14.37;;;9.57;;
4424;SDS011;2225;53.568;13.266;2023-04-24T01:05:01;12.43;;;8.37;;
4424;SDS011;2225;53.568;13.266;2023-04-24T01:07:28;13.87;;;8.93;;
4424;SDS011;2225;53.568;13.266;2023-04-24T01:09:55;14.70;;;8.77;;
4424;SDS011;2225;53.568;13.266;2023-04-24T01:12:23;15.43;;;8.57;;
4424;SDS011;2225;53.568;13.266;2023-04-24T01:14:50;13.90;;;8.40;;
4424;SDS011;2225;53.568;13.266;2023-04-24T01:17:17;12.60;;;8.23;;
4424;SDS011;2225;53.568;13.266;2023-04-24T01:19:46;13.60;;;8.40;;
4424;SDS011;2225;53.568;13.266;2023-04-24T01:22:14;14.17;;;8.00;;
4424;SDS011;2225;53.568;13.266;2023-04-24T01:24:42;15.33;;;9.17;;
4424;SDS011;2225;53.568;13.266;2023-04-24T01:27:11;15.67;;;9.90;;
4424;SDS011;2225;53.568;13.266;2023-04-24T01:29:38;12.87;;;9.10;;
4424;SDS011;2225;53.568;13.266;2023-04-24T01:32:05;17.17;;;10.97;;
4424;SDS011;2225;53.568;13.266;2023-04-24T01:34:33;15.80;;;10.83;;
4424;SDS011;2225;53.568;13.266;2023-04-24T01:37:00;20.40;;;11.03;;
4424;SDS011;2225;53.568;13.266;2023-04-24T01:39:27;19.53;;;10.83;;
4424;SDS011;2225;53.568;13.266;2023-04-24T01:41:55;14.37;;;9.23;;
4424;SDS011;2225;53.568;13.266;2023-04-24T01:44:22;18.67;;;11.20;;
4424;SDS011;2225;53.568;13.266;2023-04-24T01:46:49;16.47;;;10.97;;
4424;SDS011;2225;53.568;13.266;2023-04-24T01:49:17;15.53;;;11.10;;
4424;SDS011;2225;53.568;13.266;2023-04-24T01:51:44;19.17;;;10.53;;
4424;SDS011;2225;53.568;13.266;2023-04-24T01:54:11;17.20;;;12.10;;
4424;SDS011;2225;53.568;13.266;2023-04-24T01:56:42;18.30;;;11.70;;
4424;SDS011;2225;53.568;13.266;2023-04-24T01:59:12;20.57;;;13.00;;
4424;SDS011;2225;53.568;13.266;2023-04-24T02:01:39;19.47;;;12.20;;
4424;SDS011;2225;53.568;13.266;2023-04-24T02:04:06;21.50;;;12.00;;
4424;SDS011;2225;53.568;13.266;2023-04-24T02:06:34;20.97;;;13.30;;
4424;SDS011;2225;53.568;13.266;2023-04-24T02:09:02;32.63;;;13.10;;
4424;SDS011;2225;53.568;13.266;2023-04-24T02:11:29;19.30;;;11.93;;
4424;SDS011;2225;53.568;13.266;2023-04-24T02:13:56;21.50;;;12.73;;
4424;SDS011;2225;53.568;13.266;2023-04-24T02:16:23;19.80;;;12.50;;
4424;SDS011;2225;53.568;13.266;2023-04-24T02:18:51;17.40;;;12.13;;
4424;SDS011;2225;53.568;13.266;2023-04-24T02:21:18;20.37;;;12.40;;
4424;SDS011;2225;53.568;13.266;2023-04-24T02:23:44;21.50;;;13.83;;
4424;SDS011;2225;53.568;13.266;2023-04-24T02:26:12;21.90;;;13.47;;
4424;SDS011;2225;53.568;13.266;2023-04-24T02:28:38;21.30;;;13.67;;
4424;SDS011;2225;53.568;13.266;2023-04-24T02:31:05;22.37;;;13.70;;
4424;SDS011;2225;53.568;13.266;2023-04-24T02:33:33;20.20;;;14.10;;
4424;SDS011;2225;53.568;13.266;2023-04-24T02:36:00;24.30;;;14.53;;
4424;SDS011;2225;53.568;13.266;2023-04-24T02:38:27;19.43;;;12.20;;
4424;SDS011;2225;53.568;13.266;2023-04-24T02:40:54;20.10;;;13.50;;
4424;SDS011;2225;53.568;13.266;2023-04-24T02:43:21;23.07;;;14.20;;
4424;SDS011;2225;53.568;13.266;2023-04-24T02:45:49;20.70;;;13.30;;
4424;SDS011;2225;53.568;13.266;2023-04-24T02:48:16;19.63;;;12.70;;
4424;SDS011;2225;53.568;13.266;2023-04-24T02:50:43;20.10;;;12.37;;
4424;SDS011;2225;53.568;13.266;2023-04-24T02:53:10;18.40;;;12.00;;
4424;SDS011;2225;53.568;13.266;2023-04-24T02:55:37;18.37;;;13.10;;
4424;SDS011;2225;53.568;13.266;2023-04-24T02:58:04;18.60;;;12.13;;
4424;SDS011;2225;53.568;13.266;2023-04-24T03:00:32;18.33;;;11.60;;
4424;SDS011;2225;53.568;13.266;2023-04-24T03:02:59;17.80;;;10.90;;
4424;SDS011;2225;53.568;13.266;2023-04-24T03:05:26;15.17;;;10.87;;
4424;SDS011;2225;53.568;13.266;2023-04-24T03:07:53;17.80;;;10.90;;
4424;SDS011;2225;53.568;13.266;2023-04-24T03:10:20;18.10;;;11.13;;
4424;SDS011;2225;53.568;13.266;2023-04-24T03:12:48;20.00;;;14.40;;
4424;SDS011;2225;53.568;13.266;2023-04-24T03:15:17;19.67;;;12.90;;
4424;SDS011;2225;53.568;13.266;2023-04-24T03:17:44;18.47;;;12.17;;
4424;SDS011;2225;53.568;13.266;2023-04-24T03:20:11;17.27;;;12.10;;
4424;SDS011;2225;53.568;13.266;2023-04-24T03:22:39;21.13;;;12.17;;
4424;SDS011;2225;53.568;13.266;2023-04-24T03:25:07;17.53;;;11.30;;
4424;SDS011;2225;53.568;13.266;2023-04-24T03:27:36;17.67;;;10.43;;
4424;SDS011;2225;53.568;13.266;2023-04-24T03:30:10;18.27;;;11.97;;
4424;SDS011;2225;53.568;13.266;2023-04-24T03:32:43;19.90;;;12.60;;
4424;SDS011;2225;53.568;13.266;2023-04-24T03:35:13;19.00;;;12.37;;
4424;SDS011;2225;53.568;13.266;2023-04-24T03:37:40;33.43;;;14.17;;
4424;SDS011;2225;53.568;13.266;2023-04-24T03:40:26;22.13;;;13.67;;
4424;SDS011;2225;53.568;13.266;2023-04-24T03:42:55;20.33;;;14.33;;
4424;SDS011;2225;53.568;13.266;2023-04-24T03:45:22;21.30;;;14.80;;
4424;SDS011;2225;53.568;13.266;2023-04-24T03:47:50;23.53;;;15.90;;
4424;SDS011;2225;53.568;13.266;2023-04-24T03:50:18;27.87;;;19.23;;
4424;SDS011;2225;53.568;13.266;2023-04-24T03:52:45;27.33;;;20.27;;
4424;SDS011;2225;53.568;13.266;2023-04-24T03:55:22;34.90;;;20.60;;
4424;SDS011;2225;53.568;13.266;2023-04-24T03:57:49;32.87;;;20.83;;
4424;SDS011;2225;53.568;13.266;2023-04-24T04:00:20;30.53;;;21.10;;
4424;SDS011;2225;53.568;13.266;2023-04-24T04:02:57;32.90;;;23.00;;
4424;SDS011;2225;53.568;13.266;2023-04-24T04:05:25;32.53;;;22.30;;
4424;SDS011;2225;53.568;13.266;2023-04-24T04:07:52;29.27;;;21.53;;
4424;SDS011;2225;53.568;13.266;2023-04-24T04:10:19;27.43;;;19.77;;
4424;SDS011;2225;53.568;13.266;2023-04-24T04:12:46;27.33;;;18.60;;
4424;SDS011;2225;53.568;13.266;2023-04-24T04:15:13;26.13;;;19.10;;
4424;SDS011;2225;53.568;13.266;2023-04-24T04:17:41;27.20;;;17.20;;
4424;SDS011;2225;53.568;13.266;2023-04-24T04:20:09;25.33;;;18.10;;
4424;SDS011;2225;53.568;13.266;2023-04-24T04:22:38;27.40;;;17.40;;
4424;SDS011;2225;53.568;13.266;2023-04-24T04:25:11;26.80;;;18.50;;
4424;SDS011;2225;53.568;13.266;2023-04-24T04:27:40;29.87;;;20.10;;
4424;SDS011;2225;53.568;13.266;2023-04-24T04:30:09;31.73;;;19.53;;
4424;SDS011;2225;53.568;13.266;2023-04-24T04:32:45;30.07;;;18.40;;
4424;SDS011;2225;53.568;13.266;2023-04-24T04:35:13;26.60;;;18.87;;
4424;SDS011;2225;53.568;13.266;2023-04-24T04:37:40;28.03;;;18.63;;
4424;SDS011;2225;53.568;13.266;2023-04-24T04:40:20;28.53;;;18.13;;
4424;SDS011;2225;53.568;13.266;2023-04-24T04:42:50;23.23;;;16.27;;
4424;SDS011;2225;53.568;13.266;2023-04-24T04:45:20;22.53;;;14.47;;
4424;SDS011;2225;53.568;13.266;2023-04-24T04:48:10;22.00;;;14.97;;
4424;SDS011;2225;53.568;13.266;2023-04-24T04:50:40;22.90;;;15.10;;
4424;SDS011;2225;53.568;13.266;2023-04-24T04:53:07;20.60;;;14.80;;
4424;SDS011;2225;53.568;13.266;2023-04-24T04:55:37;21.87;;;15.60;;
4424;SDS011;2225;53.568;13.266;2023-04-24T04:58:13;24.27;;;16.07;;
4424;SDS011;2225;53.568;13.266;2023-04-24T05:00:40;25.00;;;15.37;;
4424;SDS011;2225;53.568;13.266;2023-04-24T05:03:17;22.53;;;12.90;;
4424;SDS011;2225;53.568;13.266;2023-04-24T05:05:49;27.10;;;14.20;;
4424;SDS011;2225;53.568;13.266;2023-04-24T05:08:17;20.63;;;13.80;;
4424;SDS011;2225;53.568;13.266;2023-04-24T05:10:53;21.20;;;13.90;;
4424;SDS011;2225;53.568;13.266;2023-04-24T05:13:21;23.10;;;13.90;;
4424;SDS011;2225;53.568;13.266;2023-04-24T05:16:07;18.43;;;12.80;;
4424;SDS011;2225;53.568;13.266;2023-04-24T05:18:35;23.63;;;12.47;;
4424;SDS011;2225;53.568;13.266;2023-04-24T05:21:02;19.27;;;12.67;;
4424;SDS011;2225;53.568;13.266;2023-04-24T05:23:29;16.93;;;11.70;;
4424;SDS011;2225;53.568;13.266;2023-04-24T05:25:56;21.10;;;11.00;;
4424;SDS011;2225;53.568;13.266;2023-04-24T05:28:23;19.20;;;11.33;;
4424;SDS011;2225;53.568;13.266;2023-04-24T05:31:03;16.67;;;11.30;;
4424;SDS011;2225;53.568;13.266;2023-04-24T05:33:30;17.30;;;10.93;;
4424;SDS011;2225;53.568;13.266;2023-04-24T05:35:57;16.37;;;11.20;;
4424;SDS011;2225;53.568;13.266;2023-04-24T05:38:24;16.80;;;10.90;;
4424;SDS011;2225;53.568;13.266;2023-04-24T05:40:51;17.00;;;10.47;;
4424;SDS011;2225;53.568;13.266;2023-04-24T05:43:18;13.70;;;9.67;;
4424;SDS011;2225;53.568;13.266;2023-04-24T05:45:45;16.03;;;9.60;;
4424;SDS011;2225;53.568;13.266;2023-04-24T05:48:12;14.70;;;9.13;;
4424;SDS011;2225;53.568;13.266;2023-04-24T05:50:39;17.20;;;9.70;;
4424;SDS011;2225;53.568;13.266;2023-04-24T05:53:07;14.40;;;8.43;;
4424;SDS011;2225;53.568;13.266;2023-04-24T05:55:35;13.33;;;8.47;;
4424;SDS011;2225;53.568;13.266;2023-04-24T05:58:02;13.53;;;7.30;;
4424;SDS011;2225;53.568;13.266;2023-04-24T06:00:31;16.77;;;9.10;;
4424;SDS011;2225;53.568;13.266;2023-04-24T06:03:04;12.90;;;7.73;;
4424;SDS011;2225;53.568;13.266;2023-04-24T06:05:31;11.70;;;8.67;;
4424;SDS011;2225;53.568;13.266;2023-04-24T06:08:01;13.53;;;7.43;;
4424;SDS011;2225;53.568;13.266;2023-04-24T06:10:32;10.70;;;7.03;;
4424;SDS011;2225;53.568;13.266;2023-04-24T06:13:00;13.17;;;8.10;;
4424;SDS011;2225;53.568;13.266;2023-04-24T06:15:29;16.93;;;8.30;;
4424;SDS011;2225;53.568;13.266;2023-04-24T06:18:09;11.50;;;7.57;;
4424;SDS011;2225;53.568;13.266;2023-04-24T06:20:40;11.27;;;6.87;;
4424;SDS011;2225;53.568;13.266;2023-04-24T06:23:08;13.70;;;7.07;;
4424;SDS011;2225;53.568;13.266;2023-04-24T06:25:35;13.17;;;6.97;;
4424;SDS011;2225;53.568;13.266;2023-04-24T06:28:02;11.93;;;7.60;;
4424;SDS011;2225;53.568;13.266;2023-04-24T06:30:29;11.07;;;7.23;;
4424;SDS011;2225;53.568;13.266;2023-04-24T06:32:57;10.00;;;6.60;;
4424;SDS011;2225;53.568;13.266;2023-04-24T06:35:38;10.33;;;7.40;;
4424;SDS011;2225;53.568;13.266;2023-04-24T06:38:05;10.87;;;7.23;;
4424;SDS011;2225;53.568;13.266;2023-04-24T06:40:32;16.77;;;7.20;;
4424;SDS011;2225;53.568;13.266;2023-04-24T06:42:59;13.23;;;7.40;;
4424;SDS011;2225;53.568;13.266;2023-04-24T06:45:29;11.00;;;6.87;;
4424;SDS011;2225;53.568;13.266;2023-04-24T06:47:56;14.93;;;6.97;;
4424;SDS011;2225;53.568;13.266;2023-04-24T06:50:23;12.37;;;7.17;;
4424;SDS011;2225;53.568;13.266;2023-04-24T06:52:51;18.40;;;6.80;;
4424;SDS011;2225;53.568;13.266;2023-04-24T06:55:18;9.87;;;6.20;;
4424;SDS011;2225;53.568;13.266;2023-04-24T06:57:45;10.30;;;6.73;;
4424;SDS011;2225;53.568;13.266;2023-04-24T07:00:12;9.60;;;6.70;;
4424;SDS011;2225;53.568;13.266;2023-04-24T07:02:39;12.27;;;6.53;;
4424;SDS011;2225;53.568;13.266;2023-04-24T07:05:06;9.50;;;6.40;;
4424;SDS011;2225;53.568;13.266;2023-04-24T07:07:34;11.00;;;6.40;;
4424;SDS011;2225;53.568;13.266;2023-04-24T07:10:04;11.60;;;6.53;;
4424;SDS011;2225;53.568;13.266;2023-04-24T07:12:31;11.47;;;6.77;;
4424;SDS011;2225;53.568;13.266;2023-04-24T07:14:59;12.10;;;6.20;;
4424;SDS011;2225;53.568;13.266;2023-04-24T07:17:26;9.83;;;5.90;;
4424;SDS011;2225;53.568;13.266;2023-04-24T07:19:53;11.40;;;5.90;;
4424;SDS011;2225;53.568;13.266;2023-04-24T07:22:20;7.93;;;4.90;;
4424;SDS011;2225;53.568;13.266;2023-04-24T07:24:47;9.97;;;5.73;;
4424;SDS011;2225;53.568;13.266;2023-04-24T07:27:14;8.70;;;5.50;;
4424;SDS011;2225;53.568;13.266;2023-04-24T07:29:41;8.97;;;5.00;;
4424;SDS011;2225;53.568;13.266;2023-04-24T07:32:09;8.80;;;5.40;;
4424;SDS011;2225;53.568;13.266;2023-04-24T07:34:35;6.70;;;4.13;;
4424;SDS011;2225;53.568;13.266;2023-04-24T07:37:02;9.83;;;4.60;;
4424;SDS011;2225;53.568;13.266;2023-04-24T07:39:29;9.83;;;4.40;;
4424;SDS011;2225;53.568;13.266;2023-04-24T07:41:56;9.17;;;4.70;;
4424;SDS011;2225;53.568;13.266;2023-04-24T07:44:25;8.03;;;4.53;;
4424;SDS011;2225;53.568;13.266;2023-04-24T07:46:52;8.13;;;4.30;;
4424;SDS011;2225;53.568;13.266;2023-04-24T07:49:19;9.33;;;4.77;;
4424;SDS011;2225;53.568;13.266;2023-04-24T07:51:46;9.07;;;4.83;;
4424;SDS011;2225;53.568;13.266;2023-04-24T07:54:13;8.30;;;4.33;;
4424;SDS011;2225;53.568;13.266;2023-04-24T07:56:40;17.27;;;4.63;;
4424;SDS011;2225;53.568;13.266;2023-04-24T07:59:09;9.00;;;4.30;;
4424;SDS011;2225;53.568;13.266;2023-04-24T08:01:37;7.00;;;4.10;;
4424;SDS011;2225;53.568;13.266;2023-04-24T08:04:04;7.33;;;4.57;;
4424;SDS011;2225;53.568;13.266;2023-04-24T08:06:32;8.30;;;4.50;;
4424;SDS011;2225;53.568;13.266;2023-04-24T08:08:59;7.53;;;4.47;;
4424;SDS011;2225;53.568;13.266;2023-04-24T08:11:26;8.50;;;4.33;;
4424;SDS011;2225;53.568;13.266;2023-04-24T08:13:53;7.97;;;4.20;;
4424;SDS011;2225;53.568;13.266;2023-04-24T08:16:21;7.50;;;4.00;;
4424;SDS011;2225;53.568;13.266;2023-04-24T08:18:50;7.73;;;3.50;;
4424;SDS011;2225;53.568;13.266;2023-04-24T08:21:18;11.90;;;4.43;;
4424;SDS011;2225;53.568;13.266;2023-04-24T08:23:45;11.00;;;4.00;;
4424;SDS011;2225;53.568;13.266;2023-04-24T08:26:13;7.07;;;3.67;;
4424;SDS011;2225;53.568;13.266;2023-04-24T08:28:40;7.67;;;3.40;;
4424;SDS011;2225;53.568;13.266;2023-04-24T08:31:07;8.00;;;3.57;;
4424;SDS011;2225;53.568;13.266;2023-04-24T08:33:34;9.57;;;4.63;;
4424;SDS011;2225;53.568;13.266;2023-04-24T08:36:02;6.60;;;3.10;;
4424;SDS011;2225;53.568;13.266;2023-04-24T08:38:30;5.60;;;2.70;;
4424;SDS011;2225;53.568;13.266;2023-04-24T08:40:58;9.50;;;2.90;;
4424;SDS011;2225;53.568;13.266;2023-04-24T08:43:26;11.30;;;3.00;;
4424;SDS011;2225;53.568;13.266;2023-04-24T08:45:55;5.50;;;2.40;;
4424;SDS011;2225;53.568;13.266;2023-04-24T08:48:23;5.30;;;2.00;;
4424;SDS011;2225;53.568;13.266;2023-04-24T08:50:57;8.87;;;2.30;;
4424;SDS011;2225;53.568;13.266;2023-04-24T08:53:25;5.10;;;2.10;;
4424;SDS011;2225;53.568;13.266;2023-04-24T08:55:54;11.40;;;2.40;;
4424;SDS011;2225;53.568;13.266;2023-04-24T08:58:24;4.80;;;2.00;;
4424;SDS011;2225;53.568;13.266;2023-04-24T09:00:55;5.63;;;1.83;;
4424;SDS011;2225;53.568;13.266;2023-04-24T09:03:24;4.67;;;1.77;;
4424;SDS011;2225;53.568;13.266;2023-04-24T09:05:53;4.90;;;1.60;;
4424;SDS011;2225;53.568;13.266;2023-04-24T09:08:23;5.70;;;1.77;;
4424;SDS011;2225;53.568;13.266;2023-04-24T09:10:52;5.67;;;1.50;;
4424;SDS011;2225;53.568;13.266;2023-04-24T09:13:22;8.43;;;2.10;;
4424;SDS011;2225;53.568;13.266;2023-04-24T09:15:49;5.13;;;1.80;;
4424;SDS011;2225;53.568;13.266;2023-04-24T09:18:16;4.77;;;1.60;;
4424;SDS011;2225;53.568;13.266;2023-04-24T09:21:02;5.17;;;2.17;;
4424;SDS011;2225;53.568;13.266;2023-04-24T09:23:33;10.90;;;2.47;;
4424;SDS011;2225;53.568;13.266;2023-04-24T09:26:01;8.60;;;3.00;;
4424;SDS011;2225;53.568;13.266;2023-04-24T09:28:38;5.30;;;2.40;;
4424;SDS011;2225;53.568;13.266;2023-04-24T09:31:11;4.10;;;1.43;;
4424;SDS011;2225;53.568;13.266;2023-04-24T09:33:50;6.20;;;2.53;;
4424;SDS011;2225;53.568;13.266;2023-04-24T09:36:29;4.67;;;1.70;;
4424;SDS011;2225;53.568;13.266;2023-04-24T09:39:04;7.30;;;1.57;;
4424;SDS011;2225;53.568;13.266;2023-04-24T09:41:43;5.80;;;1.97;;
4424;SDS011;2225;53.568;13.266;2023-04-24T09:44:25;5.73;;;1.80;;
4424;SDS011;2225;53.568;13.266;2023-04-24T09:46:55;8.20;;;2.23;;
4424;SDS011;2225;53.568;13.266;2023-04-24T09:49:24;5.43;;;2.10;;
4424;SDS011;2225;53.568;13.266;2023-04-24T09:52:09;4.90;;;1.80;;
4424;SDS011;2225;53.568;13.266;2023-04-24T09:54:37;5.17;;;1.53;;
4424;SDS011;2225;53.568;13.266;2023-04-24T09:57:07;7.93;;;1.87;;
4424;SDS011;2225;53.568;13.266;2023-04-24T09:59:35;5.57;;;2.17;;
4424;SDS011;2225;53.568;13.266;2023-04-24T10:02:18;6.57;;;2.40;;
4424;SDS011;2225;53.568;13.266;2023-04-24T10:04:56;5.13;;;2.10;;
4424;SDS011;2225;53.568;13.266;2023-04-24T10:07:26;6.60;;;1.80;;
4424;SDS011;2225;53.568;13.266;2023-04-24T10:09:53;4.93;;;1.70;;
4424;SDS011;2225;53.568;13.266;2023-04-24T10:12:21;5.00;;;2.17;;
4424;SDS011;2225;53.568;13.266;2023-04-24T10:14:49;4.90;;;1.77;;
4424;SDS011;2225;53.568;13.266;2023-04-24T10:17:16;8.80;;;1.77;;
4424;SDS011;2225;53.568;13.266;2023-04-24T10:19:44;7.53;;;2.00;;
4424;SDS011;2225;53.568;13.266;2023-04-24T10:22:13;4.53;;;1.37;;
4424;SDS011;2225;53.568;13.266;2023-04-24T10:24:43;8.57;;;1.47;;
4424;SDS011;2225;53.568;13.266;2023-04-24T10:27:10;4.63;;;1.63;;
4424;SDS011;2225;53.568;13.266;2023-04-24T10:29:41;5.43;;;1.60;;
4424;SDS011;2225;53.568;13.266;2023-04-24T10:32:11;4.60;;;1.40;;
4424;SDS011;2225;53.568;13.266;2023-04-24T10:34:38;4.20;;;1.40;;
4424;SDS011;2225;53.568;13.266;2023-04-24T10:37:04;5.70;;;1.80;;
4424;SDS011;2225;53.568;13.266;2023-04-24T10:39:32;4.33;;;1.43;;
4424;SDS011;2225;53.568;13.266;2023-04-24T10:41:59;8.10;;;1.30;;
4424;SDS011;2225;53.568;13.266;2023-04-24T10:44:27;5.00;;;1.10;;
4424;SDS011;2225;53.568;13.266;2023-04-24T10:47:02;4.27;;;1.33;;
4424;SDS011;2225;53.568;13.266;2023-04-24T10:49:30;4.50;;;1.10;;
4424;SDS011;2225;53.568;13.266;2023-04-24T10:52:04;4.20;;;1.40;;
4424;SDS011;2225;53.568;13.266;2023-04-24T10:54:44;4.63;;;1.50;;
4424;SDS011;2225;53.568;13.266;2023-04-24T10:59:46;4.10;;;1.30;;
4424;SDS011;2225;53.568;13.266;2023-04-24T11:02:38;4.97;;;1.50;;
4424;SDS011;2225;53.568;13.266;2023-04-24T11:05:06;3.80;;;1.10;;
4424;SDS011;2225;53.568;13.266;2023-04-24T11:10:54;5.90;;;1.40;;
4424;SDS011;2225;53.568;13.266;2023-04-24T11:16:23;5.43;;;1.50;;
4424;SDS011;2225;53.568;13.266;2023-04-24T11:21:40;4.43;;;1.57;;
4424;SDS011;2225;53.568;13.266;2023-04-24T11:24:33;4.00;;;1.17;;
4424;SDS011;2225;53.568;13.266;2023-04-24T11:27:22;7.33;;;1.27;;
4424;SDS011;2225;53.568;13.266;2023-04-24T11:37:36;4.97;;;1.00;;
4424;SDS011;2225;53.568;13.266;2023-04-24T11:40:09;3.93;;;0.80;;
4424;SDS011;2225;53.568;13.266;2023-04-24T11:42:40;3.90;;;0.87;;
4424;SDS011;2225;53.568;13.266;2023-04-24T11:45:15;4.57;;;1.23;;
4424;SDS011;2225;53.568;13.266;2023-04-24T11:47:44;4.03;;;0.70;;
4424;SDS011;2225;53.568;13.266;2023-04-24T11:50:12;4.50;;;1.03;;
4424;SDS011;2225;53.568;13.266;2023-04-24T11:52:45;3.30;;;0.70;;
4424;SDS011;2225;53.568;13.266;2023-04-24T11:57:47;4.00;;;0.80;;
4424;SDS011;2225;53.568;13.266;2023-04-24T12:00:27;4.47;;;1.03;;
4424;SDS011;2225;53.568;13.266;2023-04-24T12:03:10;3.93;;;1.10;;
4424;SDS011;2225;53.568;13.266;2023-04-24T12:05:38;4.93;;;1.13;;
4424;SDS011;2225;53.568;13.266;2023-04-24T12:08:06;5.10;;;1.30;;
4424;SDS011;2225;53.568;13.266;2023-04-24T12:10:33;4.50;;;1.30;;
4424;SDS011;2225;53.568;13.266;2023-04-24T12:13:01;6.33;;;1.63;;
4424;SDS011;2225;53.568;13.266;2023-04-24T12:15:28;5.33;;;1.50;;
4424;SDS011;2225;53.568;13.266;2023-04-24T12:17:55;6.90;;;1.63;;
4424;SDS011;2225;53.568;13.266;2023-04-24T12:20:23;5.70;;;1.50;;
4424;SDS011;2225;53.568;13.266;2023-04-24T12:22:56;4.97;;;1.60;;
4424;SDS011;2225;53.568;13.266;2023-04-24T12:25:26;6.77;;;1.47;;
4424;SDS011;2225;53.568;13.266;2023-04-24T12:27:57;5.57;;;1.70;;
4424;SDS011;2225;53.568;13.266;2023-04-24T12:30:44;5.30;;;1.37;;
4424;SDS011;2225;53.568;13.266;2023-04-24T12:33:18;8.90;;;1.63;;
4424;SDS011;2225;53.568;13.266;2023-04-24T12:35:47;5.37;;;1.50;;
4424;SDS011;2225;53.568;13.266;2023-04-24T12:38:21;5.17;;;1.37;;
4424;SDS011;2225;53.568;13.266;2023-04-24T12:41:01;5.27;;;1.20;;
4424;SDS011;2225;53.568;13.266;2023-04-24T12:43:38;4.90;;;1.00;;
4424;SDS011;2225;53.568;13.266;2023-04-24T12:46:17;5.43;;;1.30;;
4424;SDS011;2225;53.568;13.266;2023-04-24T12:48:47;4.30;;;0.70;;
4424;SDS011;2225;53.568;13.266;2023-04-24T12:51:14;4.80;;;1.37;;
4424;SDS011;2225;53.568;13.266;2023-04-24T12:53:41;4.30;;;1.20;;
4424;SDS011;2225;53.568;13.266;2023-04-24T12:56:08;4.23;;;0.97;;
4424;SDS011;2225;53.568;13.266;2023-04-24T12:58:35;4.37;;;0.83;;
4424;SDS011;2225;53.568;13.266;2023-04-24T13:01:02;6.67;;;1.50;;
4424;SDS011;2225;53.568;13.266;2023-04-24T13:03:29;3.90;;;0.80;;
4424;SDS011;2225;53.568;13.266;2023-04-24T13:05:56;4.33;;;1.03;;
4424;SDS011;2225;53.568;13.266;2023-04-24T13:08:23;5.50;;;1.47;;
4424;SDS011;2225;53.568;13.266;2023-04-24T13:10:50;3.83;;;0.80;;
4424;SDS011;2225;53.568;13.266;2023-04-24T13:13:18;4.53;;;1.10;;
4424;SDS011;2225;53.568;13.266;2023-04-24T13:15:45;5.60;;;0.83;;
4424;SDS011;2225;53.568;13.266;2023-04-24T13:18:11;3.87;;;0.77;;
4424;SDS011;2225;53.568;13.266;2023-04-24T13:20:38;3.90;;;0.90;;
4424;SDS011;2225;53.568;13.266;2023-04-24T13:23:07;3.80;;;0.67;;
4424;SDS011;2225;53.568;13.266;2023-04-24T13:25:35;4.93;;;1.40;;
4424;SDS011;2225;53.568;13.266;2023-04-24T13:28:03;4.43;;;0.90;;
4424;SDS011;2225;53.568;13.266;2023-04-24T13:30:31;4.00;;;0.80;;
4424;SDS011;2225;53.568;13.266;2023-04-24T13:32:58;4.00;;;0.80;;
4424;SDS011;2225;53.568;13.266;2023-04-24T13:35:25;4.30;;;0.83;;
4424;SDS011;2225;53.568;13.266;2023-04-24T13:37:52;6.40;;;1.00;;
4424;SDS011;2225;53.568;13.266;2023-04-24T13:40:19;6.10;;;1.10;;
4424;SDS011;2225;53.568;13.266;2023-04-24T13:42:45;4.70;;;1.60;;
4424;SDS011;2225;53.568;13.266;2023-04-24T13:45:12;6.13;;;1.30;;
4424;SDS011;2225;53.568;13.266;2023-04-24T13:47:50;4.07;;;1.00;;
4424;SDS011;2225;53.568;13.266;2023-04-24T13:50:18;4.07;;;1.10;;
4424;SDS011;2225;53.568;13.266;2023-04-24T13:52:45;5.23;;;1.43;;
4424;SDS011;2225;53.568;13.266;2023-04-24T13:55:12;4.30;;;1.00;;
4424;SDS011;2225;53.568;13.266;2023-04-24T13:57:39;5.40;;;1.13;;
4424;SDS011;2225;53.568;13.266;2023-04-24T14:00:06;7.07;;;1.20;;
4424;SDS011;2225;53.568;13.266;2023-04-24T14:02:36;5.37;;;1.10;;
4424;SDS011;2225;53.568;13.266;2023-04-24T14:05:03;5.00;;;1.03;;
4424;SDS011;2225;53.568;13.266;2023-04-24T14:07:31;4.80;;;1.27;;
4424;SDS011;2225;53.568;13.266;2023-04-24T14:09:58;7.80;;;1.43;;
4424;SDS011;2225;53.568;13.266;2023-04-24T14:12:26;5.90;;;1.33;;
4424;SDS011;2225;53.568;13.266;2023-04-24T14:14:53;4.50;;;1.10;;
4424;SDS011;2225;53.568;13.266;2023-04-24T14:17:20;6.63;;;1.20;;
4424;SDS011;2225;53.568;13.266;2023-04-24T14:19:47;4.43;;;1.10;;
4424;SDS011;2225;53.568;13.266;2023-04-24T14:22:14;5.20;;;1.63;;
4424;SDS011;2225;53.568;13.266;2023-04-24T14:24:41;5.10;;;1.70;;
4424;SDS011;2225;53.568;13.266;2023-04-24T14:27:08;8.40;;;1.30;;
4424;SDS011;2225;53.568;13.266;2023-04-24T14:29:35;5.47;;;1.17;;
4424;SDS011;2225;53.568;13.266;2023-04-24T14:32:02;4.60;;;1.43;;
4424;SDS011;2225;53.568;13.266;2023-04-24T14:34:29;4.67;;;1.33;;
4424;SDS011;2225;53.568;13.266;2023-04-24T14:36:56;7.60;;;1.53;;
4424;SDS011;2225;53.568;13.266;2023-04-24T14:39:22;4.17;;;1.20;;
4424;SDS011;2225;53.568;13.266;2023-04-24T14:41:49;4.40;;;1.53;;
4424;SDS011;2225;53.568;13.266;2023-04-24T14:44:16;5.90;;;2.00;;
4424;SDS011;2225;53.568;13.266;2023-04-24T14:46:43;4.80;;;1.50;;
4424;SDS011;2225;53.568;13.266;2023-04-24T14:49:10;7.93;;;1.53;;
4424;SDS011;2225;53.568;13.266;2023-04-24T14:51:38;6.03;;;1.40;;
4424;SDS011;2225;53.568;13.266;2023-04-24T14:54:05;4.70;;;1.30;;
4424;SDS011;2225;53.568;13.266;2023-04-24T14:56:32;5.90;;;1.43;;
4424;SDS011;2225;53.568;13.266;2023-04-24T14:58:59;4.50;;;1.60;;
4424;SDS011;2225;53.568;13.266;2023-04-24T15:01:26;4.57;;;1.60;;
4424;SDS011;2225;53.568;13.266;2023-04-24T15:03:53;7.30;;;1.80;;
4424;SDS011;2225;53.568;13.266;2023-04-24T15:06:20;5.03;;;1.60;;
4424;SDS011;2225;53.568;13.266;2023-04-24T15:08:47;11.73;;;3.60;;
4424;SDS011;2225;53.568;13.266;2023-04-24T15:11:16;7.63;;;2.93;;
4424;SDS011;2225;53.568;13.266;2023-04-24T15:13:43;8.17;;;2.07;;
4424;SDS011;2225;53.568;13.266;2023-04-24T15:16:13;4.63;;;1.67;;
4424;SDS011;2225;53.568;13.266;2023-04-24T15:18:40;5.30;;;2.30;;
4424;SDS011;2225;53.568;13.266;2023-04-24T15:21:07;5.37;;;2.40;;
4424;SDS011;2225;53.568;13.266;2023-04-24T15:23:34;5.33;;;2.13;;